createdAt,value
2023-08-23T00:01:17.250Z,26.07
2023-08-23T00:03:53.200Z,25.97
2023-08-23T00:06:20.709Z,25.91
2023-08-23T00:08:48.291Z,25.75
2023-08-23T00:11:15.822Z,25.62
2023-08-23T00:13:43.440Z,25.67
2023-08-23T00:16:10.810Z,26.07
2023-08-23T00:18:39.859Z,26.24
2023-08-23T00:21:07.423Z,25.92
2023-08-23T00:23:35.351Z,25.72
2023-08-23T00:26:02.588Z,25.96
2023-08-23T00:28:30.223Z,25.87
2023-08-23T00:30:57.714Z,25.93
2023-08-23T00:33:26.864Z,25.73
2023-08-23T00:35:55.542Z,26.07
2023-08-23T00:38:23.941Z,26.26
2023-08-23T00:40:51.406Z,25.76
2023-08-23T00:43:19.837Z,25.80
2023-08-23T00:45:48.217Z,25.39
2023-08-23T00:48:15.948Z,25.16
2023-08-23T00:50:46.643Z,25.26
2023-08-23T00:53:15.446Z,25.12
2023-08-23T00:55:42.953Z,25.16
2023-08-23T00:58:10.900Z,25.04
2023-08-23T01:00:40.726Z,25.15
2023-08-23T01:03:10.938Z,25.11
2023-08-23T01:05:50.332Z,25.02
2023-08-23T01:08:59.676Z,24.90
2023-08-23T01:11:46.438Z,24.99
2023-08-23T01:14:46.142Z,25.24
2023-08-23T01:17:17.113Z,25.25
2023-08-23T01:19:49.059Z,25.26
2023-08-23T01:22:25.400Z,25.30
2023-08-23T01:24:53.531Z,25.35
2023-08-23T01:27:21.508Z,25.30
2023-08-23T01:29:49.538Z,25.32
2023-08-23T01:32:45.111Z,25.32
2023-08-23T01:35:20.798Z,25.15
2023-08-23T01:37:52.341Z,24.94
2023-08-23T01:40:20.510Z,24.92
2023-08-23T01:42:49.348Z,25.03
2023-08-23T01:45:20.383Z,25.25
2023-08-23T01:47:49.233Z,25.22
2023-08-23T01:50:17.084Z,25.24
2023-08-23T01:52:44.306Z,25.11
2023-08-23T01:55:12.471Z,25.48
2023-08-23T01:57:41.474Z,25.76
2023-08-23T02:00:10.270Z,25.86
2023-08-23T02:02:41.985Z,25.95
2023-08-23T02:05:09.899Z,25.76
2023-08-23T02:07:37.601Z,25.27
2023-08-23T02:10:05.831Z,25.25
2023-08-23T02:12:33.004Z,25.22
2023-08-23T02:15:00.720Z,25.19
2023-08-23T02:17:28.900Z,25.28
2023-08-23T02:19:58.730Z,24.82
2023-08-23T02:22:26.032Z,24.67
2023-08-23T02:24:53.902Z,24.96
2023-08-23T02:27:21.149Z,25.13
2023-08-23T02:29:48.746Z,24.85
2023-08-23T02:32:16.179Z,24.59
2023-08-23T02:34:43.706Z,24.46
2023-08-23T02:37:10.948Z,24.58
2023-08-23T02:39:38.738Z,24.78
2023-08-23T02:42:06.726Z,24.73
2023-08-23T02:44:34.593Z,24.58
2023-08-23T02:47:01.926Z,24.84
2023-08-23T02:49:29.565Z,24.78
2023-08-23T02:51:56.974Z,24.65
2023-08-23T02:54:24.571Z,24.70
2023-08-23T02:56:51.929Z,24.64
2023-08-23T02:59:19.583Z,24.98
2023-08-23T03:01:48.254Z,25.06
2023-08-23T03:04:16.047Z,24.87
2023-08-23T03:06:44.791Z,24.85
2023-08-23T03:09:12.434Z,24.79
2023-08-23T03:11:39.755Z,24.74
2023-08-23T03:14:09.632Z,24.43
2023-08-23T03:16:37.077Z,24.66
2023-08-23T03:19:04.639Z,24.41
2023-08-23T03:21:32.227Z,24.67
2023-08-23T03:24:00.166Z,24.68
2023-08-23T03:26:28.973Z,24.64
2023-08-23T03:28:59.374Z,24.48
2023-08-23T03:31:27.891Z,24.66
2023-08-23T03:33:55.738Z,24.91
2023-08-23T03:36:23.675Z,24.96
2023-08-23T03:38:51.302Z,25.03
2023-08-23T03:41:18.635Z,25.24
2023-08-23T03:43:46.841Z,25.29
2023-08-23T03:46:15.011Z,25.05
2023-08-23T03:48:42.804Z,25.18
2023-08-23T03:51:10.114Z,25.27
2023-08-23T03:53:37.854Z,24.94
2023-08-23T03:56:05.641Z,24.78
2023-08-23T03:58:33.294Z,24.67
2023-08-23T04:01:00.544Z,24.57
2023-08-23T04:03:28.436Z,24.80
2023-08-23T04:05:55.979Z,25.13
2023-08-23T04:08:23.872Z,25.29
2023-08-23T04:10:51.715Z,24.85
2023-08-23T04:13:19.435Z,25.08
2023-08-23T04:15:47.104Z,25.19
2023-08-23T04:18:15.328Z,25.31
2023-08-23T04:20:42.836Z,25.15
2023-08-23T04:23:10.811Z,25.25
2023-08-23T04:25:38.301Z,25.16
2023-08-23T04:28:06.450Z,25.07
2023-08-23T04:30:33.806Z,25.09
2023-08-23T04:33:02.620Z,25.12
2023-08-23T04:35:30.035Z,25.37
2023-08-23T04:37:58.676Z,25.01
2023-08-23T04:40:27.016Z,25.29
2023-08-23T04:42:57.118Z,25.51
2023-08-23T04:45:27.713Z,25.66
2023-08-23T04:47:56.303Z,25.47
2023-08-23T04:50:23.699Z,25.51
2023-08-23T04:52:52.953Z,25.64
2023-08-23T04:55:21.063Z,25.54
2023-08-23T04:57:48.973Z,25.61
2023-08-23T05:00:17.016Z,25.44
2023-08-23T05:02:44.889Z,25.45
2023-08-23T05:05:13.501Z,25.67
2023-08-23T05:07:41.188Z,26.10
2023-08-23T05:10:09.402Z,26.21
2023-08-23T05:12:37.018Z,25.79
2023-08-23T05:15:05.666Z,26.16
2023-08-23T05:17:33.332Z,26.20
2023-08-23T05:20:02.015Z,26.37
2023-08-23T05:22:32.226Z,26.66
2023-08-23T05:24:59.511Z,26.85
2023-08-23T05:27:27.258Z,27.11
2023-08-23T05:29:55.385Z,27.13
2023-08-23T05:32:23.722Z,27.12
2023-08-23T05:34:51.993Z,27.56
2023-08-23T05:37:20.865Z,27.66
2023-08-23T05:39:51.644Z,27.74
2023-08-23T05:42:19.970Z,28.02
2023-08-23T05:44:47.741Z,28.14
2023-08-23T05:47:15.646Z,28.38
2023-08-23T05:49:44.063Z,28.60
2023-08-23T05:52:14.623Z,28.90
2023-08-23T05:54:42.844Z,29.03
2023-08-23T05:57:10.493Z,29.26
2023-08-23T05:59:37.763Z,29.47
2023-08-23T06:02:05.643Z,29.79
2023-08-23T06:04:33.606Z,30.37
2023-08-23T06:07:01.345Z,30.68
2023-08-23T06:09:28.638Z,30.84
2023-08-23T06:11:58.339Z,30.97
2023-08-23T06:14:28.743Z,31.19
2023-08-23T06:16:57.182Z,31.48
2023-08-23T06:19:24.615Z,31.66
2023-08-23T06:21:53.515Z,31.94
2023-08-23T06:24:22.078Z,32.18
2023-08-23T06:26:52.045Z,32.35
2023-08-23T06:29:21.001Z,32.48
2023-08-23T06:31:48.674Z,32.64
2023-08-23T06:34:15.980Z,33.18
2023-08-23T06:36:44.752Z,33.06
2023-08-23T06:39:23.895Z,33.36
2023-08-23T06:42:02.555Z,33.47
2023-08-23T06:44:31.302Z,33.71
2023-08-23T06:46:58.956Z,33.88
2023-08-23T06:49:26.512Z,33.91
2023-08-23T06:51:55.159Z,34.02
2023-08-23T06:54:22.515Z,34.34
2023-08-23T06:56:50.199Z,34.34
2023-08-23T06:59:18.181Z,33.36
2023-08-23T07:01:47.876Z,33.57
2023-08-23T07:04:16.367Z,33.31
2023-08-23T07:06:44.231Z,33.90
2023-08-23T07:09:11.905Z,34.10
2023-08-23T07:11:39.988Z,33.70
2023-08-23T07:14:08.177Z,34.19
2023-08-23T07:16:36.276Z,33.98
2023-08-23T07:19:04.740Z,34.02
2023-08-23T07:21:34.655Z,33.91
2023-08-23T07:24:04.065Z,34.24
2023-08-23T07:26:35.213Z,33.84
2023-08-23T07:29:03.544Z,34.47
2023-08-23T07:31:31.156Z,34.31
2023-08-23T07:33:58.355Z,34.31
2023-08-23T07:36:26.691Z,34.28
2023-08-23T07:38:55.230Z,34.17
2023-08-23T07:41:22.785Z,34.50
2023-08-23T07:43:50.197Z,34.16
2023-08-23T07:46:17.962Z,33.34
2023-08-23T07:48:45.365Z,34.20
2023-08-23T07:51:13.061Z,34.04
2023-08-23T07:53:43.168Z,33.35
2023-08-23T07:56:15.625Z,33.55
2023-08-23T07:58:44.377Z,33.98
2023-08-23T08:01:12.057Z,34.11
2023-08-23T08:03:40.702Z,33.98
2023-08-23T08:06:08.303Z,34.08
2023-08-23T08:08:40.586Z,34.10
2023-08-23T08:11:08.368Z,34.11
2023-08-23T08:13:35.589Z,35.06
2023-08-23T08:16:14.188Z,35.25
2023-08-23T08:18:44.338Z,34.51
2023-08-23T08:21:12.302Z,34.84
2023-08-23T08:23:39.750Z,35.07
2023-08-23T08:26:09.023Z,35.02
2023-08-23T08:28:36.422Z,35.30
2023-08-23T08:31:03.976Z,35.48
2023-08-23T08:33:31.373Z,35.69
2023-08-23T08:35:58.912Z,36.09
2023-08-23T08:38:26.140Z,36.21
2023-08-23T08:40:55.958Z,36.11
2023-08-23T08:43:24.348Z,36.49
2023-08-23T08:45:52.096Z,36.83
2023-08-23T08:48:19.428Z,36.81
2023-08-23T08:50:47.920Z,36.80
2023-08-23T08:53:17.345Z,37.08
2023-08-23T08:55:48.822Z,37.39
2023-08-23T08:58:21.152Z,36.96
2023-08-23T09:00:50.400Z,36.95
2023-08-23T09:03:21.604Z,37.09
2023-08-23T09:05:50.000Z,37.15
2023-08-23T09:08:17.991Z,37.30
2023-08-23T09:10:45.630Z,37.36
2023-08-23T09:13:13.202Z,37.23
2023-08-23T09:15:40.932Z,37.05
2023-08-23T09:18:08.268Z,36.85
2023-08-23T09:20:37.049Z,37.13
2023-08-23T09:23:04.814Z,37.08
2023-08-23T09:25:32.386Z,37.63
2023-08-23T09:28:01.002Z,37.25
2023-08-23T09:30:28.627Z,37.00
2023-08-23T09:32:58.670Z,36.48
2023-08-23T09:35:27.237Z,36.49
2023-08-23T09:37:55.274Z,37.03
2023-08-23T09:40:30.297Z,37.28
2023-08-23T09:42:59.895Z,37.50
2023-08-23T09:45:28.931Z,37.67
2023-08-23T09:47:59.798Z,38.01
2023-08-23T09:50:28.457Z,38.07
2023-08-23T09:53:02.725Z,38.37
2023-08-23T09:55:31.628Z,38.48
2023-08-23T09:58:00.080Z,38.55
2023-08-23T10:00:28.679Z,38.80
2023-08-23T10:03:00.167Z,38.90
2023-08-23T10:05:29.016Z,38.71
2023-08-23T10:07:58.515Z,38.85
2023-08-23T10:10:27.609Z,39.05
2023-08-23T10:13:00.716Z,38.96
2023-08-23T10:15:31.305Z,39.00
2023-08-23T10:18:01.338Z,39.30
2023-08-23T10:20:29.779Z,39.17
2023-08-23T10:22:57.841Z,38.65
2023-08-23T10:25:25.514Z,38.72
2023-08-23T10:27:57.541Z,38.77
2023-08-23T10:30:30.004Z,38.68
2023-08-23T10:33:10.022Z,38.96
2023-08-23T10:35:38.820Z,39.07
2023-08-23T10:38:07.267Z,38.32
2023-08-23T10:40:36.649Z,38.54
2023-08-23T10:43:11.074Z,38.85
2023-08-23T10:45:59.098Z,38.74
2023-08-23T10:48:26.492Z,38.26
2023-08-23T10:50:57.053Z,38.08
2023-08-23T10:53:28.510Z,38.85
2023-08-23T10:56:01.199Z,39.01
2023-08-23T10:58:28.581Z,39.11
2023-08-23T11:00:57.028Z,39.01
2023-08-23T11:03:25.694Z,39.12
2023-08-23T11:05:53.977Z,39.41
2023-08-23T11:08:23.298Z,38.78
2023-08-23T11:10:51.524Z,38.75
2023-08-23T11:13:18.853Z,38.85
2023-08-23T11:15:46.543Z,38.90
2023-08-23T11:18:14.797Z,38.91
2023-08-23T11:20:43.106Z,38.88
2023-08-23T11:23:11.159Z,38.78
2023-08-23T11:25:39.255Z,38.89
2023-08-23T11:28:07.392Z,38.89
2023-08-23T11:30:35.218Z,39.13
2023-08-23T11:33:04.543Z,39.06
2023-08-23T11:35:32.219Z,39.34
2023-08-23T11:37:59.477Z,39.51
2023-08-23T11:40:27.186Z,39.20
2023-08-23T11:43:11.997Z,39.49
2023-08-23T11:45:44.676Z,39.06
2023-08-23T11:48:12.259Z,39.16
2023-08-23T11:50:40.302Z,39.07
2023-08-23T11:53:10.333Z,39.14
2023-08-23T11:55:38.398Z,39.25
2023-08-23T11:58:07.726Z,39.47
2023-08-23T12:00:35.354Z,39.66
2023-08-23T12:03:03.787Z,39.58
2023-08-23T12:05:31.593Z,39.62
2023-08-23T12:07:59.200Z,39.63
2023-08-23T12:10:27.294Z,39.54
2023-08-23T12:12:55.535Z,39.30
2023-08-23T12:15:22.958Z,39.33
2023-08-23T12:17:50.906Z,39.42
2023-08-23T12:20:18.821Z,39.57
2023-08-23T12:22:47.577Z,39.41
2023-08-23T12:25:15.542Z,39.52
2023-08-23T12:27:44.140Z,39.67
2023-08-23T12:30:11.490Z,39.49
2023-08-23T12:32:39.096Z,39.49
2023-08-23T12:35:07.326Z,39.65
2023-08-23T12:37:34.882Z,39.80
2023-08-23T12:40:02.137Z,39.90
2023-08-23T12:42:34.617Z,39.52
2023-08-23T12:45:03.934Z,38.89
2023-08-23T12:47:31.517Z,39.15
2023-08-23T12:49:58.954Z,39.36
2023-08-23T12:52:26.814Z,39.25
2023-08-23T12:54:54.161Z,38.91
2023-08-23T12:57:21.796Z,39.05
2023-08-23T12:59:49.107Z,39.38
2023-08-23T13:02:16.802Z,39.01
2023-08-23T13:04:44.556Z,39.14
2023-08-23T13:07:12.193Z,39.21
2023-08-23T13:09:39.371Z,39.07
2023-08-23T13:12:07.322Z,39.40
2023-08-23T13:14:34.607Z,39.26
2023-08-23T13:17:02.197Z,39.27
2023-08-23T13:19:31.142Z,39.04
2023-08-23T13:22:01.490Z,39.09
2023-08-23T13:24:28.983Z,38.61
2023-08-23T13:26:56.620Z,38.17
2023-08-23T13:29:23.856Z,38.25
2023-08-23T13:31:52.069Z,38.37
2023-08-23T13:34:19.391Z,38.57
2023-08-23T13:36:47.028Z,38.67
2023-08-23T13:39:14.359Z,38.77
2023-08-23T13:41:42.257Z,38.63
2023-08-23T13:44:09.677Z,38.60
2023-08-23T13:46:37.454Z,38.76
2023-08-23T13:49:04.747Z,38.53
2023-08-23T13:51:32.346Z,38.51
2023-08-23T13:53:59.914Z,38.58
2023-08-23T13:56:27.581Z,38.72
2023-08-23T13:58:56.874Z,38.91
2023-08-23T14:01:26.245Z,38.47
2023-08-23T14:03:54.269Z,38.44
2023-08-23T14:06:21.855Z,38.44
2023-08-23T14:08:50.944Z,38.44
2023-08-23T14:11:18.589Z,38.56
2023-08-23T14:13:45.950Z,38.50
2023-08-23T14:16:13.682Z,38.37
2023-08-23T14:18:41.984Z,38.44
2023-08-23T14:21:10.265Z,38.12
2023-08-23T14:23:37.776Z,38.31
2023-08-23T14:26:05.590Z,38.16
2023-08-23T14:28:32.890Z,38.26
2023-08-23T14:31:00.955Z,38.45
2023-08-23T14:33:28.328Z,38.37
2023-08-23T14:35:56.226Z,38.18
2023-08-23T14:38:23.547Z,38.42
2023-08-23T14:40:56.782Z,38.36
2023-08-23T14:43:24.530Z,38.22
2023-08-23T14:45:52.101Z,38.22
2023-08-23T14:48:19.691Z,38.35
2023-08-23T14:50:47.407Z,38.26
2023-08-23T14:53:14.806Z,37.84
2023-08-23T14:55:42.624Z,38.02
2023-08-23T14:58:09.833Z,37.81
2023-08-23T15:00:41.027Z,37.71
2023-08-23T15:03:08.604Z,37.48
2023-08-23T15:05:38.058Z,37.52
2023-08-23T15:08:07.236Z,37.70
2023-08-23T15:10:36.406Z,37.56
2023-08-23T15:13:04.279Z,37.63
2023-08-23T15:15:31.814Z,37.62
2023-08-23T15:17:59.162Z,37.66
2023-08-23T15:20:26.731Z,37.57
2023-08-23T15:22:54.027Z,37.23
2023-08-23T15:25:22.979Z,37.24
2023-08-23T15:27:52.298Z,37.27
2023-08-23T15:30:20.082Z,37.14
2023-08-23T15:32:47.517Z,36.59
2023-08-23T15:35:15.134Z,36.46
2023-08-23T15:37:42.399Z,36.60
2023-08-23T15:40:12.434Z,36.52
2023-08-23T15:42:40.290Z,36.34
2023-08-23T15:45:08.300Z,36.44
2023-08-23T15:47:36.527Z,36.25
2023-08-23T15:50:05.392Z,36.21
2023-08-23T15:52:33.018Z,36.30
2023-08-23T15:55:00.805Z,36.06
2023-08-23T15:57:28.054Z,35.83
2023-08-23T15:59:55.786Z,35.60
2023-08-23T16:02:25.624Z,35.50
2023-08-23T16:04:53.626Z,35.63
2023-08-23T16:07:20.836Z,35.61
2023-08-23T16:09:48.430Z,35.69
2023-08-23T16:12:15.624Z,35.48
2023-08-23T16:14:43.131Z,35.34
2023-08-23T16:17:10.394Z,35.24
2023-08-23T16:19:39.015Z,35.22
2023-08-23T16:22:06.649Z,35.13
2023-08-23T16:24:34.657Z,34.94
2023-08-23T16:27:02.165Z,34.65
2023-08-23T16:29:29.708Z,34.60
2023-08-23T16:31:57.006Z,34.56
2023-08-23T16:34:24.603Z,34.50
2023-08-23T16:36:51.927Z,34.36
2023-08-23T16:39:19.485Z,34.20
2023-08-23T16:41:47.074Z,33.94
2023-08-23T16:44:14.821Z,33.85
2023-08-23T16:46:42.740Z,33.69
2023-08-23T16:49:10.381Z,33.46
2023-08-23T16:51:38.005Z,33.46
2023-08-23T16:54:05.590Z,33.35
2023-08-23T16:56:33.006Z,33.17
2023-08-23T16:59:00.617Z,32.98
2023-08-23T17:01:27.985Z,32.80
2023-08-23T17:03:55.942Z,32.61
2023-08-23T17:06:23.232Z,32.49
2023-08-23T17:08:50.815Z,32.18
2023-08-23T17:11:18.132Z,32.16
2023-08-23T17:13:45.717Z,31.95
2023-08-23T17:16:13.100Z,31.87
2023-08-23T17:18:40.752Z,31.66
2023-08-23T17:21:08.031Z,31.67
2023-08-23T17:23:36.742Z,31.51
2023-08-23T17:26:04.103Z,31.32
2023-08-23T17:28:32.135Z,31.09
2023-08-23T17:31:00.799Z,31.17
2023-08-23T17:33:28.391Z,31.15
2023-08-23T17:35:55.581Z,30.97
2023-08-23T17:38:23.211Z,30.90
2023-08-23T17:40:52.401Z,30.80
2023-08-23T17:43:20.119Z,30.68
2023-08-23T17:45:48.103Z,30.45
2023-08-23T17:48:16.469Z,30.28
2023-08-23T17:50:43.826Z,30.14
2023-08-23T17:53:11.448Z,30.04
2023-08-23T17:55:38.887Z,29.98
2023-08-23T17:58:07.103Z,29.89
2023-08-23T18:00:34.746Z,29.75
2023-08-23T18:03:02.563Z,29.73
2023-08-23T18:05:29.979Z,29.69
2023-08-23T18:07:58.269Z,29.68
2023-08-23T18:10:25.489Z,29.61
2023-08-23T18:12:53.776Z,29.45
2023-08-23T18:15:21.499Z,29.31
2023-08-23T18:17:49.420Z,29.15
2023-08-23T18:20:19.015Z,29.12
2023-08-23T18:22:47.226Z,29.08
2023-08-23T18:25:15.191Z,29.00
2023-08-23T18:27:42.888Z,29.04
2023-08-23T18:30:10.516Z,28.96
2023-08-23T18:32:38.180Z,28.92
2023-08-23T18:35:06.055Z,28.93
2023-08-23T18:37:33.670Z,28.78
2023-08-23T18:40:01.136Z,28.74
2023-08-23T18:42:49.254Z,28.73
2023-08-23T18:45:19.633Z,28.83
2023-08-23T18:47:48.372Z,28.85
2023-08-23T18:50:16.480Z,28.85
2023-08-23T18:52:49.562Z,28.92
2023-08-23T18:55:17.102Z,28.85
2023-08-23T18:57:50.496Z,28.80
2023-08-23T19:00:18.493Z,28.80
2023-08-23T19:02:47.243Z,28.80
2023-08-23T19:05:20.684Z,28.78
2023-08-23T19:07:51.343Z,28.68
2023-08-23T19:10:18.861Z,28.79
2023-08-23T19:12:46.675Z,28.73
2023-08-23T19:15:14.241Z,28.72
2023-08-23T19:17:46.261Z,28.71
2023-08-23T19:20:14.306Z,28.72
2023-08-23T19:22:42.139Z,28.78
2023-08-23T19:25:09.567Z,28.74
2023-08-23T19:27:37.125Z,28.76
2023-08-23T19:30:04.927Z,28.76
2023-08-23T19:32:32.721Z,28.71
2023-08-23T19:35:00.156Z,28.63
2023-08-23T19:37:28.799Z,28.71
2023-08-23T19:39:56.023Z,28.75
2023-08-23T19:42:24.458Z,28.76
2023-08-23T19:44:51.981Z,28.76
2023-08-23T19:47:20.616Z,28.62
2023-08-23T19:49:47.985Z,28.58
2023-08-23T19:52:15.457Z,28.58
2023-08-23T19:54:42.815Z,28.65
2023-08-23T19:57:11.724Z,28.40
2023-08-23T19:59:39.048Z,28.35
2023-08-23T20:02:07.492Z,28.33
2023-08-23T20:04:35.004Z,28.27
2023-08-23T20:07:02.798Z,28.37
2023-08-23T20:09:30.044Z,28.32
2023-08-23T20:12:00.145Z,28.40
2023-08-23T20:14:30.880Z,28.33
2023-08-23T20:17:00.950Z,28.33
2023-08-23T20:19:28.373Z,28.49
2023-08-23T20:21:56.011Z,28.46
2023-08-23T20:24:23.622Z,28.56
2023-08-23T20:26:51.425Z,28.46
2023-08-23T20:29:18.672Z,28.40
2023-08-23T20:31:47.290Z,28.26
2023-08-23T20:34:14.763Z,28.35
2023-08-23T20:36:42.496Z,28.40
2023-08-23T20:39:09.862Z,28.48
2023-08-23T20:41:37.713Z,28.53
2023-08-23T20:44:05.274Z,28.44
2023-08-23T20:46:33.283Z,28.48
2023-08-23T20:49:00.636Z,28.50
2023-08-23T20:51:29.457Z,28.46
2023-08-23T20:53:58.219Z,28.39
2023-08-23T20:56:26.062Z,28.18
2023-08-23T20:58:53.362Z,28.09
2023-08-23T21:01:21.734Z,28.04
2023-08-23T21:03:49.335Z,27.96
2023-08-23T21:06:17.108Z,27.93
2023-08-23T21:08:44.530Z,27.70
2023-08-23T21:11:12.577Z,27.72
2023-08-23T21:13:39.868Z,27.65
2023-08-23T21:16:07.676Z,27.63
2023-08-23T21:18:35.208Z,27.50
2023-08-23T21:21:03.463Z,27.38
2023-08-23T21:23:30.978Z,27.34
2023-08-23T21:25:58.613Z,27.42
2023-08-23T21:28:25.866Z,27.41
2023-08-23T21:30:53.493Z,27.36
2023-08-23T21:33:23.393Z,27.27
2023-08-23T21:35:51.416Z,27.26
2023-08-23T21:38:22.779Z,27.26
2023-08-23T21:40:59.509Z,27.21
2023-08-23T21:43:29.929Z,27.25
2023-08-23T21:45:58.437Z,27.29
2023-08-23T21:48:25.825Z,27.23
2023-08-23T21:50:53.596Z,27.35
2023-08-23T21:53:20.914Z,27.40
2023-08-23T21:55:54.993Z,27.40
2023-08-23T21:58:28.751Z,27.46
2023-08-23T22:01:01.228Z,27.47
2023-08-23T22:03:30.018Z,27.53
2023-08-23T22:06:05.071Z,27.39
2023-08-23T22:08:35.404Z,27.45
2023-08-23T22:11:12.154Z,27.40
2023-08-23T22:13:42.673Z,27.34
2023-08-23T22:16:11.549Z,27.36
2023-08-23T22:18:39.252Z,27.31
2023-08-23T22:21:10.360Z,27.30
2023-08-23T22:23:37.919Z,27.41
2023-08-23T22:26:05.979Z,27.28
2023-08-23T22:28:34.330Z,27.28
2023-08-23T22:31:02.372Z,27.15
2023-08-23T22:33:29.795Z,27.06
2023-08-23T22:35:59.073Z,27.04
2023-08-23T22:38:27.482Z,27.17
2023-08-23T22:40:57.006Z,27.13
2023-08-23T22:43:25.496Z,27.14
2023-08-23T22:45:56.246Z,27.13
2023-08-23T22:48:23.485Z,27.10
2023-08-23T22:50:51.964Z,27.14
2023-08-23T22:53:19.710Z,27.17
2023-08-23T22:55:47.359Z,27.14
2023-08-23T22:58:14.701Z,27.00
2023-08-23T23:00:43.760Z,26.93
2023-08-23T23:03:11.940Z,26.86
2023-08-23T23:05:42.782Z,26.78
2023-08-23T23:08:11.285Z,26.82
2023-08-23T23:10:39.288Z,26.97
2023-08-23T23:13:06.635Z,26.80
2023-08-23T23:15:34.344Z,26.59
2023-08-23T23:18:01.595Z,26.54
2023-08-23T23:20:29.572Z,26.51
2023-08-23T23:22:57.140Z,26.63
2023-08-23T23:25:26.804Z,26.60
2023-08-23T23:27:54.145Z,26.59
2023-08-23T23:30:21.711Z,26.86
2023-08-23T23:32:49.357Z,26.98
2023-08-23T23:35:17.205Z,26.97
2023-08-23T23:37:45.349Z,27.11
2023-08-23T23:40:16.948Z,26.54
2023-08-23T23:42:44.481Z,26.34
2023-08-23T23:45:15.459Z,26.43
2023-08-23T23:47:43.748Z,26.34
2023-08-23T23:50:11.427Z,26.27
2023-08-23T23:52:38.717Z,26.18
2023-08-23T23:55:06.940Z,26.48
2023-08-23T23:57:34.593Z,26.83
